Terminal Aerodrome Forecast
Issued by NWS Charleston, WV

Current Version | Previous Version | Text Only | Print | Product List | Glossary On
Versions: 1 2 3 4 5 6 7 8 9 10 11 12 13 14 15 16 17 18 19 20 21 22 23 24 25
000
FTUS41 KRLX 070255 AAA
TAFEKN
TAF AMD
KEKN 070255Z 0703/0724 00000KT P6SM VCSH BKN020 BKN026 BKN110
     FM070700 00000KT 4SM BR SCT035
     FM070730 00000KT 1/2SM FG VV001
     FM071230 23002KT 1 1/2SM BR SCT002
     FM071300 24008KT P6SM SCT045=

USA.gov is the U.S. government's official web portal to all federal, state and local government web resources and services.